Time;durP1;ratioP1;P1;durP2;ratioP2;P2;SDS_P1;SDS_P2;PMS_P1;PMS_P2;Temp;Humidity;BMP_temperature;BMP_pressure;BME280_temperature;BME280_humidity;BME280_pressure;Samples;Min_cycle;Max_cycle;Signal;HPM_P1;HPM_P2
2022/11/03 00:00:31;;;;;;;6.77;1.93;;;9.90;1.00;;;;;;5113385;28;20692;-89
2022/11/03 00:02:58;;;;;;;9.20;2.03;;;10.00;1.00;;;;;;5112771;28;20205;-89
2022/11/03 00:08:09;;;;;;;9.23;1.80;;;10.00;1.00;;;;;;5113408;28;20200;-89
2022/11/03 00:10:35;;;;;;;9.20;2.27;;;10.10;1.00;;;;;;5112859;28;20642;-89
2022/11/03 00:13:02;;;;;;;6.37;1.90;;;10.20;1.00;;;;;;5113278;28;20218;-89
2022/11/03 00:15:31;;;;;;;5.53;1.80;;;10.10;1.00;;;;;;5112905;28;20263;-89
2022/11/03 00:17:57;;;;;;;5.50;2.00;;;10.10;99.90;;;;;;5112681;28;20602;-89
2022/11/03 00:20:24;;;;;;;6.37;1.60;;;10.00;1.00;;;;;;5113568;28;20705;-89
2022/11/03 00:22:51;;;;;;;6.50;2.03;;;10.00;1.00;;;;;;5113463;28;20201;-89
2022/11/03 00:25:18;;;;;;;6.20;1.87;;;10.00;1.00;;;;;;5113026;28;20648;-89
2022/11/03 00:27:45;;;;;;;8.80;1.83;;;9.80;99.90;;;;;;5112637;28;20624;-89
2022/11/03 00:30:12;;;;;;;8.17;1.77;;;9.80;99.90;;;;;;5112611;28;20579;-89
2022/11/03 00:32:41;;;;;;;8.93;1.90;;;9.90;1.00;;;;;;5112575;28;20333;-89
2022/11/03 00:35:08;;;;;;;5.40;1.80;;;9.90;1.00;;;;;;5112959;28;20305;-89
2022/11/03 00:37:35;;;;;;;6.93;2.20;;;9.90;1.00;;;;;;5112801;28;20189;-89
2022/11/03 00:40:02;;;;;;;8.30;2.30;;;9.90;81.50;;;;;;5112759;28;20239;-89
2022/11/03 00:42:28;;;;;;;9.93;2.07;;;9.80;1.00;;;;;;5112157;28;20203;-90
2022/11/03 00:44:55;;;;;;;10.27;2.17;;;9.70;1.00;;;;;;5112705;28;20708;-89
2022/11/03 00:47:22;;;;;;;6.13;1.63;;;9.60;1.00;;;;;;5111881;28;20229;-89
2022/11/03 00:49:51;;;;;;;7.73;1.93;;;9.70;1.00;;;;;;5112429;28;20231;-90
2022/11/03 00:52:17;;;;;;;8.97;1.97;;;9.70;1.00;;;;;;5111864;28;20207;-90
2022/11/03 00:54:44;;;;;;;9.90;2.10;;;9.50;1.00;;;;;;5111846;28;21323;-90
2022/11/03 00:57:11;;;;;;;6.47;1.60;;;9.40;1.00;;;;;;5090960;28;20208;-89
2022/11/03 00:59:38;;;;;;;10.30;2.60;;;9.50;1.00;;;;;;5108004;28;20296;-89
2022/11/03 01:02:05;;;;;;;7.73;2.07;;;9.50;1.00;;;;;;5111796;28;20285;-89
2022/11/03 01:07:21;;;;;;;10.43;1.97;;;9.60;1.00;;;;;;5108426;28;20788;-89
2022/11/03 01:09:48;;;;;;;5.37;1.70;;;9.80;1.00;;;;;;5105306;28;20216;-89
2022/11/03 01:12:15;;;;;;;7.37;1.70;;;9.70;1.00;;;;;;5112095;28;20721;-90
2022/11/03 01:14:44;;;;;;;8.97;1.80;;;9.60;1.00;;;;;;5111831;28;20269;-89
2022/11/03 01:17:13;;;;;;;9.03;1.83;;;9.80;1.00;;;;;;5112142;28;20197;-90
2022/11/03 01:19:40;;;;;;;4.93;1.90;;;9.70;1.00;;;;;;5111899;28;20207;-89
2022/11/03 01:22:07;;;;;;;9.97;2.27;;;9.70;99.90;;;;;;5112444;28;20213;-90
2022/11/03 01:24:36;;;;;;;8.87;2.30;;;9.70;99.90;;;;;;5112348;28;20559;-89
2022/11/03 01:30:24;;;;;;;7.17;1.93;;;9.70;99.90;;;;;;5107871;28;20200;-89
2022/11/03 01:32:51;;;;;;;6.67;2.60;;;9.80;99.90;;;;;;5109995;28;20755;-89
2022/11/03 01:35:18;;;;;;;10.63;2.30;;;9.90;99.90;;;;;;5111761;28;20236;-89
2022/11/03 01:37:45;;;;;;;6.27;2.10;;;9.80;99.90;;;;;;5112359;28;20258;-89
2022/11/03 01:40:14;;;;;;;3.83;1.60;;;9.80;99.90;;;;;;5112240;28;20235;-89
2022/11/03 01:42:41;;;;;;;10.40;2.30;;;9.90;99.90;;;;;;5111324;28;20240;-90
2022/11/03 01:45:09;;;;;;;5.00;1.63;;;9.80;99.90;;;;;;5112105;28;20292;-89
2022/11/03 01:47:37;;;;;;;4.33;1.70;;;9.80;99.90;;;;;;5111796;28;20201;-89
2022/11/03 01:50:09;;;;;;;4.33;1.60;;;9.90;99.90;;;;;;5111481;28;20251;-89
2022/11/03 01:52:41;;;;;;;7.70;2.00;;;9.80;99.90;;;;;;5109670;28;20258;-89
2022/11/03 01:55:14;;;;;;;9.07;1.73;;;9.80;99.90;;;;;;5096940;28;20224;-90
2022/11/03 01:57:49;;;;;;;7.90;2.20;;;9.70;1.00;;;;;;5111491;28;20247;-89
2022/11/03 02:00:16;;;;;;;6.90;1.87;;;9.60;99.90;;;;;;5115490;28;20224;-89
2022/11/03 02:02:44;;;;;;;5.10;1.50;;;9.70;1.00;;;;;;5116076;28;20220;-89
2022/11/03 02:05:13;;;;;;;4.40;1.50;;;9.70;1.00;;;;;;5114367;28;20209;-89
2022/11/03 02:07:46;;;;;;;9.47;2.20;;;9.60;1.00;;;;;;5115597;28;20240;-89
2022/11/03 02:10:15;;;;;;;7.90;2.33;;;9.70;1.00;;;;;;5115305;28;20208;-90
2022/11/03 02:12:43;;;;;;;4.83;2.17;;;9.60;1.00;;;;;;5115847;28;20310;-89
2022/11/03 02:15:13;;;;;;;9.17;2.47;;;9.50;1.00;;;;;;5114660;28;20753;-90
2022/11/03 02:17:42;;;;;;;8.13;2.00;;;9.50;1.00;;;;;;5115516;28;20287;-89
2022/11/03 02:20:12;;;;;;;7.60;1.90;;;9.60;1.00;;;;;;5115353;28;20578;-90
2022/11/03 02:23:15;;;;;;;6.00;2.00;;;9.70;99.90;;;;;;5115627;28;20772;-89
2022/11/03 02:25:45;;;;;;;5.17;2.13;;;9.50;1.00;;;;;;5115348;28;20217;-89
2022/11/03 02:28:16;;;;;;;8.40;2.33;;;9.60;1.00;;;;;;5115942;28;20280;-90
2022/11/03 02:30:49;;;;;;;8.13;1.93;;;9.70;1.00;;;;;;5113710;28;20680;-89
2022/11/03 02:33:31;;;;;;;6.97;2.10;;;10.00;99.90;;;;;;5115041;28;20201;-89
2022/11/03 02:36:03;;;;;;;7.00;1.93;;;10.10;1.00;;;;;;5111400;28;20221;-89
2022/11/03 02:38:33;;;;;;;5.53;1.60;;;10.10;1.00;;;;;;5115126;28;20283;-88
2022/11/03 02:41:06;;;;;;;10.77;2.10;;;9.90;99.90;;;;;;5114658;28;20713;-88
2022/11/03 02:43:34;;;;;;;5.50;1.93;;;10.00;1.00;;;;;;5114051;28;20198;-89
2022/11/03 02:46:03;;;;;;;6.83;2.37;;;10.00;1.00;;;;;;5114962;28;20216;-88
2022/11/03 02:48:30;;;;;;;4.77;1.50;;;10.20;1.00;;;;;;5114287;28;20208;-89
2022/11/03 02:50:57;;;;;;;5.87;1.67;;;10.10;99.90;;;;;;5114100;28;20226;-91
2022/11/03 02:53:27;;;;;;;8.17;2.10;;;10.20;94.60;;;;;;5115349;28;20729;-89
2022/11/03 02:56:00;;;;;;;7.40;1.73;;;10.30;1.00;;;;;;5114420;28;20616;-89
2022/11/03 02:58:35;;;;;;;7.73;2.17;;;10.10;99.90;;;;;;5114137;28;20215;-89
2022/11/03 03:01:10;;;;;;;11.23;2.40;;;10.20;99.90;;;;;;5114288;28;20289;-89
2022/11/03 03:03:41;;;;;;;9.17;1.83;;;10.20;95.70;;;;;;5114692;28;20201;-89
2022/11/03 03:06:11;;;;;;;5.73;1.57;;;10.20;1.00;;;;;;5113705;28;20220;-89
2022/11/03 03:08:43;;;;;;;5.73;1.80;;;10.20;62.20;;;;;;5113148;28;20276;-90
2022/11/03 03:11:12;;;;;;;5.93;1.90;;;10.10;99.90;;;;;;5112980;28;20256;-89
2022/11/03 03:13:42;;;;;;;8.80;1.83;;;10.00;99.90;;;;;;5093875;28;20765;-89
2022/11/03 03:16:16;;;;;;;6.13;1.67;;;10.10;99.90;;;;;;5113891;28;20311;-89
2022/11/03 03:18:49;;;;;;;8.07;1.67;;;10.00;1.00;;;;;;5114149;28;20199;-90
2022/11/03 03:21:21;;;;;;;5.40;1.87;;;9.90;1.00;;;;;;5114434;28;20280;-89
2022/11/03 03:23:52;;;;;;;9.50;1.97;;;9.90;1.00;;;;;;5114248;28;20209;-90
2022/11/03 03:26:25;;;;;;;7.10;1.70;;;9.90;1.00;;;;;;5113461;28;20231;-89
2022/11/03 03:28:57;;;;;;;4.17;1.57;;;10.00;9.10;;;;;;5113351;28;20197;-89
2022/11/03 03:31:27;;;;;;;8.27;2.00;;;9.90;1.00;;;;;;5114069;28;20616;-89
2022/11/03 03:33:55;;;;;;;7.57;2.03;;;9.90;1.00;;;;;;5114179;28;20287;-90
2022/11/03 03:36:24;;;;;;;7.50;2.20;;;9.90;1.00;;;;;;5113982;28;20225;-89
2022/11/03 03:38:55;;;;;;;5.07;1.77;;;9.90;1.00;;;;;;5114233;28;20666;-89
2022/11/03 03:41:24;;;;;;;7.57;2.10;;;9.90;1.00;;;;;;5114560;28;20582;-90
2022/11/03 03:43:53;;;;;;;8.83;2.00;;;9.90;1.00;;;;;;5113977;28;20677;-89
2022/11/03 03:46:24;;;;;;;6.20;1.67;;;9.90;1.00;;;;;;5106586;28;20649;-89
2022/11/03 03:48:57;;;;;;;7.73;1.93;;;9.90;1.00;;;;;;5114965;28;20627;-87
2022/11/03 03:51:26;;;;;;;5.07;2.00;;;9.90;1.00;;;;;;5113841;28;20203;-90
2022/11/03 03:53:54;;;;;;;7.77;2.37;;;10.00;1.00;;;;;;5113841;28;20230;-89
2022/11/03 03:56:26;;;;;;;7.83;2.23;;;9.80;99.90;;;;;;5113717;28;20304;-88
2022/11/03 03:58:54;;;;;;;7.37;2.20;;;9.70;1.00;;;;;;5114061;28;20197;-92
2022/11/03 04:01:22;;;;;;;10.67;2.17;;;9.70;1.00;;;;;;5113550;28;20559;-89
2022/11/03 04:03:49;;;;;;;6.97;1.97;;;9.70;1.00;;;;;;5113586;28;20295;-89
2022/11/03 04:06:16;;;;;;;6.57;1.73;;;9.50;99.90;;;;;;5113750;28;20221;-90
2022/11/03 04:08:43;;;;;;;3.50;1.60;;;9.40;1.00;;;;;;5113468;28;20204;-90
2022/11/03 04:22:17;;;;;;;5.10;1.87;;;9.60;99.90;;;;;;5113173;28;20203;-90
2022/11/03 04:24:45;;;;;;;8.93;2.00;;;9.70;1.00;;;;;;5113666;28;20208;-89
2022/11/03 04:27:31;;;;;;;14.50;3.80;;;9.90;1.00;;;;;;5113184;28;20280;-89
2022/11/03 04:30:06;;;;;;;11.10;4.00;;;9.70;1.00;;;;;;5113256;28;20718;-90
2022/11/03 04:32:35;;;;;;;6.33;2.20;;;9.60;1.00;;;;;;5113273;28;20197;-89
2022/11/03 04:35:01;;;;;;;5.40;1.63;;;9.60;99.90;;;;;;5113005;28;20229;-90
2022/11/03 04:37:28;;;;;;;6.43;1.90;;;9.70;99.90;;;;;;5113449;28;20205;-89
2022/11/03 04:39:59;;;;;;;8.40;2.67;;;9.60;1.00;;;;;;5113096;28;20205;-90
2022/11/03 04:42:27;;;;;;;7.90;2.50;;;9.70;99.90;;;;;;5113155;28;20209;-89
2022/11/03 04:44:54;;;;;;;6.87;2.10;;;9.90;1.00;;;;;;5113504;28;20644;-89
2022/11/03 04:47:21;;;;;;;9.83;2.77;;;9.80;1.00;;;;;;5113198;28;20208;-89
2022/11/03 04:49:50;;;;;;;5.53;1.80;;;9.90;1.00;;;;;;5112838;28;20222;-90
2022/11/03 04:52:19;;;;;;;8.20;2.33;;;9.70;38.40;;;;;;5112978;28;20205;-88
2022/11/03 04:54:49;;;;;;;4.10;2.00;;;9.90;1.00;;;;;;5112899;28;20239;-88
2022/11/03 04:57:18;;;;;;;5.37;1.93;;;9.90;1.00;;;;;;5112889;28;20225;-88
2022/11/03 04:59:47;;;;;;;7.13;2.07;;;9.80;46.00;;;;;;5113207;28;20688;-89
2022/11/03 05:02:17;;;;;;;7.37;2.20;;;9.90;1.00;;;;;;5113036;28;20639;-88
2022/11/03 05:04:44;;;;;;;7.17;1.83;;;10.00;1.00;;;;;;5113290;28;20201;-88
2022/11/03 05:07:23;;;;;;;7.37;2.10;;;10.00;1.00;;;;;;5112763;28;20203;-89
2022/11/03 05:09:51;;;;;;;7.03;2.00;;;9.90;1.00;;;;;;5112674;28;20208;-85
2022/11/03 05:12:19;;;;;;;5.67;2.07;;;9.90;1.00;;;;;;5113010;28;20212;-88
2022/11/03 05:14:46;;;;;;;7.10;2.13;;;9.80;99.90;;;;;;5112688;28;20231;-88
2022/11/03 05:17:23;;;;;;;8.57;2.27;;;9.80;99.90;;;;;;5112464;28;20221;-89
2022/11/03 05:19:51;;;;;;;11.37;4.30;;;9.90;1.00;;;;;;5112278;28;20212;-85
2022/11/03 05:22:22;;;;;;;8.23;1.90;;;9.90;65.80;;;;;;5103658;28;20208;-88
2022/11/03 05:24:52;;;;;;;6.57;2.70;;;9.80;99.90;;;;;;5106098;28;20609;-88
2022/11/03 05:27:21;;;;;;;5.57;2.27;;;9.90;1.00;;;;;;5111923;28;20662;-88
2022/11/03 05:29:49;;;;;;;7.53;1.87;;;9.90;99.50;;;;;;5110774;28;20201;-89
2022/11/03 05:32:21;;;;;;;7.57;2.60;;;9.90;1.00;;;;;;5110331;28;20207;-88
2022/11/03 05:34:51;;;;;;;7.90;1.97;;;9.90;1.00;;;;;;5116594;28;20236;-88
2022/11/03 05:37:26;;;;;;;10.20;2.80;;;9.90;1.00;;;;;;5116933;28;20205;-88
2022/11/03 05:39:56;;;;;;;9.20;2.40;;;10.00;1.00;;;;;;5116347;28;20204;-88
2022/11/03 05:42:31;;;;;;;7.77;2.00;;;10.00;1.00;;;;;;5115433;28;20205;-88
2022/11/03 05:45:00;;;;;;;6.70;2.40;;;9.90;1.00;;;;;;5116276;28;20224;-88
2022/11/03 05:47:32;;;;;;;7.07;2.17;;;10.00;1.00;;;;;;5116594;28;20298;-89
2022/11/03 05:50:06;;;;;;;8.07;1.93;;;9.90;1.00;;;;;;5115349;28;20197;-88
2022/11/03 05:52:35;;;;;;;5.13;1.90;;;10.00;1.00;;;;;;5116254;28;20220;-88
2022/11/03 05:55:03;;;;;;;10.73;2.53;;;9.90;1.00;;;;;;5115440;28;20224;-88
2022/11/03 05:57:32;;;;;;;6.17;2.77;;;9.90;97.30;;;;;;5115486;28;20724;-88
2022/11/03 05:59:59;;;;;;;5.00;2.03;;;10.00;79.50;;;;;;5115676;28;20204;-88
2022/11/03 06:02:38;;;;;;;6.63;2.00;;;9.90;99.90;;;;;;5115291;28;20197;-88
2022/11/03 06:05:15;;;;;;;9.13;2.30;;;10.00;99.90;;;;;;5114830;28;20216;-89
2022/11/03 06:07:43;;;;;;;6.83;2.20;;;9.90;1.00;;;;;;5115485;28;20202;-88
2022/11/03 06:10:23;;;;;;;6.27;1.80;;;9.90;99.90;;;;;;5114590;28;20219;-88
2022/11/03 06:12:50;;;;;;;6.50;2.07;;;10.00;95.40;;;;;;5115501;28;20208;-88
2022/11/03 06:15:29;;;;;;;10.80;2.13;;;9.90;99.90;;;;;;5115920;28;20694;-88
2022/11/03 06:17:57;;;;;;;6.63;2.30;;;9.90;1.00;;;;;;5114679;28;20207;-87
2022/11/03 06:20:24;;;;;;;5.00;2.17;;;10.00;1.00;;;;;;5114969;28;20204;-88
2022/11/03 06:22:54;;;;;;;7.43;2.20;;;10.00;1.00;;;;;;5115983;28;20288;-88
2022/11/03 06:25:27;;;;;;;9.20;2.60;;;10.00;1.00;;;;;;5115094;28;20256;-88
2022/11/03 06:27:57;;;;;;;4.10;1.93;;;10.10;99.90;;;;;;5115538;28;20662;-88
2022/11/03 06:30:26;;;;;;;8.43;2.20;;;9.90;1.00;;;;;;5115033;28;20200;-88
2022/11/03 06:32:57;;;;;;;6.37;2.23;;;10.00;1.00;;;;;;5114966;28;20227;-88
2022/11/03 06:35:24;;;;;;;7.67;2.10;;;9.90;1.00;;;;;;5115025;28;20620;-88
2022/11/03 06:37:53;;;;;;;5.80;2.00;;;9.80;99.90;;;;;;5115143;28;20816;-88
2022/11/03 06:40:37;;;;;;;6.17;2.57;;;9.80;1.00;;;;;;5114846;28;20246;-89
2022/11/03 06:43:18;;;;;;;8.03;2.40;;;9.80;1.00;;;;;;5111013;28;20646;-88
2022/11/03 06:45:53;;;;;;;8.27;2.43;;;9.80;1.00;;;;;;5114191;28;20216;-88
2022/11/03 06:48:26;;;;;;;6.50;3.30;;;9.80;1.00;;;;;;5115519;28;20636;-88
2022/11/03 06:50:54;;;;;;;10.80;3.10;;;9.70;1.00;;;;;;5114582;28;20216;-88
2022/11/03 06:53:26;;;;;;;7.50;2.13;;;9.60;99.90;;;;;;5115176;28;20337;-88
2022/11/03 06:55:54;;;;;;;5.97;2.70;;;9.60;99.90;;;;;;5113780;28;20233;-89
2022/11/03 06:58:26;;;;;;;5.17;2.00;;;9.50;1.00;;;;;;5113636;28;20209;-88
2022/11/03 07:00:55;;;;;;;4.50;1.60;;;9.40;1.00;;;;;;5114266;28;20254;-89
2022/11/03 07:03:27;;;;;;;5.37;1.80;;;9.50;1.00;;;;;;5113476;28;20201;-88
2022/11/03 07:05:57;;;;;;;8.37;2.40;;;9.40;1.00;;;;;;5113536;28;20266;-88
2022/11/03 07:08:29;;;;;;;6.87;2.10;;;9.40;1.00;;;;;;5114761;28;20208;-88
2022/11/03 07:11:03;;;;;;;5.37;2.27;;;9.60;1.00;;;;;;5114732;28;20200;-89
2022/11/03 07:13:32;;;;;;;6.00;2.30;;;9.40;1.00;;;;;;5114175;28;20689;-88
2022/11/03 07:15:59;;;;;;;6.87;2.17;;;9.50;1.00;;;;;;5114703;28;20778;-88
2022/11/03 07:18:29;;;;;;;6.93;2.20;;;9.50;1.00;;;;;;5112805;28;20193;-89
2022/11/03 07:20:58;;;;;;;9.30;2.43;;;9.60;1.00;;;;;;5114233;28;20207;-88
2022/11/03 07:23:30;;;;;;;6.93;2.43;;;9.50;1.00;;;;;;5114406;28;20206;-88
2022/11/03 07:25:59;;;;;;;11.73;2.33;;;9.60;1.00;;;;;;5114622;28;20225;-89
2022/11/03 07:28:31;;;;;;;8.57;2.70;;;9.60;1.00;;;;;;5114023;28;20197;-88
2022/11/03 07:31:00;;;;;;;7.63;2.40;;;9.70;99.90;;;;;;5113701;28;20205;-87
2022/11/03 07:33:29;;;;;;;4.60;2.20;;;9.70;99.90;;;;;;5114074;28;20673;-87
2022/11/03 07:35:57;;;;;;;10.50;3.10;;;9.90;99.90;;;;;;5113759;28;20246;-88
2022/11/03 07:38:27;;;;;;;6.83;2.33;;;9.70;99.90;;;;;;5114120;28;20566;-88
2022/11/03 07:40:57;;;;;;;10.20;2.57;;;9.70;1.00;;;;;;5113428;28;20201;-88
2022/11/03 07:43:28;;;;;;;5.03;2.10;;;9.70;1.00;;;;;;5112903;28;20193;-88
2022/11/03 07:45:57;;;;;;;6.90;2.73;;;9.80;1.00;;;;;;5113703;28;20231;-88
2022/11/03 07:48:26;;;;;;;6.83;2.50;;;10.10;99.90;;;;;;5114730;28;20209;-88
2022/11/03 07:50:54;;;;;;;5.00;2.10;;;10.20;39.20;;;;;;5113304;28;20216;-86
2022/11/03 07:53:31;;;;;;;9.37;2.50;;;10.20;99.90;;;;;;5114134;28;20197;-88
2022/11/03 07:55:59;;;;;;;9.67;2.37;;;10.30;1.00;;;;;;5111223;28;20776;-88
2022/11/03 07:58:37;;;;;;;8.43;2.10;;;10.40;1.00;;;;;;5113577;28;20208;-89
2022/11/03 08:01:23;;;;;;;11.17;2.33;;;10.50;1.00;;;;;;5113394;28;20201;-88
2022/11/03 08:03:51;;;;;;;12.73;2.50;;;10.60;99.90;;;;;;5112283;28;20212;-89
2022/11/03 08:06:18;;;;;;;6.67;1.90;;;10.70;1.00;;;;;;5112427;28;20725;-88
2022/11/03 08:08:46;;;;;;;7.83;2.13;;;10.70;1.00;;;;;;5113992;28;20717;-88
2022/11/03 08:11:13;;;;;;;5.87;1.80;;;10.70;1.00;;;;;;5113123;28;20204;-88
2022/11/03 08:13:39;;;;;;;8.27;2.00;;;10.80;1.00;;;;;;5092242;28;20194;-88
2022/11/03 08:16:06;;;;;;;8.30;2.10;;;10.80;99.90;;;;;;5092454;28;20239;-88
2022/11/03 08:18:33;;;;;;;7.60;2.17;;;10.90;1.00;;;;;;5111727;28;20205;-88
2022/11/03 08:21:00;;;;;;;6.53;1.87;;;10.90;1.00;;;;;;5113203;28;20238;-89
2022/11/03 08:23:27;;;;;;;5.77;2.23;;;11.00;99.90;;;;;;5113458;28;20200;-88
2022/11/03 08:25:55;;;;;;;9.10;2.00;;;11.00;99.90;;;;;;5112873;28;20227;-88
2022/11/03 08:28:22;;;;;;;8.13;2.03;;;11.10;99.90;;;;;;5113906;28;20202;-88
2022/11/03 08:30:49;;;;;;;7.33;2.17;;;11.20;1.00;;;;;;5113443;28;20211;-88
2022/11/03 08:33:16;;;;;;;5.00;2.03;;;11.30;1.00;;;;;;5112764;28;20209;-89
2022/11/03 08:35:43;;;;;;;5.80;2.20;;;11.40;1.00;;;;;;5136253;28;20268;-88
2022/11/03 08:38:10;;;;;;;6.07;2.60;;;11.50;99.90;;;;;;5121611;28;20229;-88
2022/11/03 08:40:36;;;;;;;6.47;1.97;;;11.60;1.00;;;;;;5113161;28;20211;-86
2022/11/03 08:43:05;;;;;;;8.03;2.10;;;11.70;41.10;;;;;;5112465;28;20204;-88
2022/11/03 08:45:32;;;;;;;8.17;1.90;;;11.80;99.90;;;;;;5113066;28;20232;-88
2022/11/03 08:47:59;;;;;;;5.50;1.93;;;11.80;1.00;;;;;;5112602;28;20208;-88
2022/11/03 08:50:25;;;;;;;6.93;2.30;;;12.10;1.00;;;;;;5111796;28;20646;-88
2022/11/03 08:52:52;;;;;;;7.20;2.40;;;12.00;1.00;;;;;;5113489;28;20217;-87
2022/11/03 08:55:19;;;;;;;7.57;2.90;;;12.00;1.00;;;;;;5112319;28;20232;-89
2022/11/03 08:57:46;;;;;;;7.07;2.50;;;12.00;1.00;;;;;;5112185;28;20221;-89
2022/11/03 09:00:16;;;;;;;5.73;2.07;;;12.20;1.00;;;;;;5112706;28;20204;-88
2022/11/03 09:02:43;;;;;;;8.63;2.57;;;12.30;99.90;;;;;;5112745;28;20686;-88
2022/11/03 09:05:11;;;;;;;4.03;2.10;;;12.30;99.90;;;;;;5112073;28;20236;-88
2022/11/03 09:07:38;;;;;;;5.50;2.63;;;12.30;99.90;;;;;;5109817;28;20196;-88
2022/11/03 09:10:06;;;;;;;11.60;2.40;;;12.30;99.90;;;;;;5111328;28;20201;-88
2022/11/03 09:12:33;;;;;;;9.40;2.87;;;12.30;99.90;;;;;;5112568;28;20201;-88
2022/11/03 09:15:00;;;;;;;8.03;2.27;;;12.30;1.00;;;;;;5111583;28;20715;-88
2022/11/03 09:17:28;;;;;;;11.07;2.80;;;12.50;99.90;;;;;;5112515;28;20225;-88
2022/11/03 09:19:54;;;;;;;3.80;1.90;;;12.60;1.00;;;;;;5112690;28;20657;-89
2022/11/03 09:22:22;;;;;;;7.37;2.47;;;12.60;1.00;;;;;;5112974;28;20209;-89
2022/11/03 09:24:49;;;;;;;10.77;2.20;;;12.70;1.00;;;;;;5097445;28;20231;-89
2022/11/03 09:27:15;;;;;;;7.70;2.60;;;12.90;1.00;;;;;;5112271;28;20201;-89
2022/11/03 09:29:42;;;;;;;7.53;2.03;;;13.10;1.00;;;;;;5111747;28;20588;-88
2022/11/03 09:32:09;;;;;;;8.20;2.00;;;13.20;1.00;;;;;;5112523;28;20216;-89
2022/11/03 09:34:37;;;;;;;7.87;1.90;;;13.30;99.90;;;;;;5112600;28;20269;-88
2022/11/03 09:37:04;;;;;;;8.37;2.27;;;13.30;99.90;;;;;;5112719;28;20223;-89
2022/11/03 09:39:32;;;;;;;5.20;2.03;;;13.40;10.90;;;;;;5112536;28;20200;-88
2022/11/03 09:42:02;;;;;;;7.07;2.00;;;13.50;1.00;;;;;;5112687;28;20576;-87
2022/11/03 09:44:29;;;;;;;6.90;2.13;;;13.50;1.00;;;;;;5112875;28;20587;-88
2022/11/03 09:46:56;;;;;;;5.07;1.97;;;13.60;1.00;;;;;;5112554;28;20201;-89
2022/11/03 09:49:22;;;;;;;5.43;2.00;;;14.00;1.00;;;;;;5113727;28;20205;-89
2022/11/03 09:51:52;;;;;;;5.77;1.67;;;14.20;99.90;;;;;;5112378;28;20204;-89
2022/11/03 09:54:20;;;;;;;5.37;2.20;;;14.50;1.00;;;;;;5112544;28;20224;-89
2022/11/03 09:56:46;;;;;;;8.23;2.30;;;14.60;97.40;;;;;;5113044;28;20682;-88
2022/11/03 09:59:15;;;;;;;6.47;2.10;;;14.70;1.00;;;;;;5112592;28;20569;-89
2022/11/03 10:01:44;;;;;;;8.33;2.97;;;14.40;1.00;;;;;;5112439;28;20201;-89
2022/11/03 10:04:12;;;;;;;6.37;2.10;;;14.40;1.00;;;;;;5112919;28;20236;-89
2022/11/03 10:06:39;;;;;;;7.70;1.90;;;14.20;99.90;;;;;;5112426;28;20220;-89
2022/11/03 10:09:14;;;;;;;4.47;2.13;;;14.00;99.90;;;;;;5112592;28;20220;-89
2022/11/03 10:11:41;;;;;;;9.30;2.77;;;13.80;1.00;;;;;;5112309;28;20340;-88
2022/11/03 10:14:12;;;;;;;4.00;2.00;;;13.80;1.00;;;;;;5112234;28;20201;-88
2022/11/03 10:16:41;;;;;;;7.43;2.00;;;13.80;1.00;;;;;;5112511;28;20232;-89
2022/11/03 10:19:10;;;;;;;7.27;2.00;;;13.90;1.00;;;;;;5113275;28;20203;-90
2022/11/03 10:21:37;;;;;;;16.20;2.23;;;13.80;1.00;;;;;;5116344;28;20253;-89
2022/11/03 10:24:04;;;;;;;7.07;2.60;;;13.70;1.00;;;;;;5116274;28;20211;-89
2022/11/03 10:26:44;;;;;;;8.30;2.30;;;13.60;1.00;;;;;;5116025;28;20221;-89
2022/11/03 10:29:19;;;;;;;8.00;2.57;;;13.70;1.00;;;;;;5115994;28;20679;-88
2022/11/03 10:31:48;;;;;;;10.40;2.33;;;13.90;1.00;;;;;;5115704;28;20580;-89
2022/11/03 10:34:27;;;;;;;5.03;2.03;;;14.00;9.20;;;;;;5115944;28;20200;-87
2022/11/03 10:37:22;;;;;;;4.60;2.03;;;14.00;1.00;;;;;;5115825;28;20270;-89
2022/11/03 10:39:51;;;;;;;5.17;1.97;;;13.90;1.00;;;;;;5068676;28;20209;-86
2022/11/03 10:42:21;;;;;;;6.23;1.87;;;13.90;1.00;;;;;;5115853;28;20211;-89
2022/11/03 10:44:51;;;;;;;5.60;2.20;;;13.90;1.00;;;;;;5116041;28;20231;-89
2022/11/03 10:47:31;;;;;;;6.80;2.30;;;13.80;1.00;;;;;;5115610;28;20556;-89
2022/11/03 10:49:58;;;;;;;4.73;2.53;;;13.90;1.00;;;;;;5115621;28;20201;-89
2022/11/03 10:52:28;;;;;;;4.60;2.13;;;13.70;1.00;;;;;;5115736;28;20205;-88
2022/11/03 10:54:58;;;;;;;5.10;2.23;;;13.90;1.00;;;;;;5116144;28;20281;-88
2022/11/03 10:57:27;;;;;;;9.03;2.53;;;13.80;1.00;;;;;;5115569;28;20227;-88
2022/11/03 10:59:54;;;;;;;9.47;2.70;;;13.70;1.00;;;;;;5115558;28;20315;-89
2022/11/03 11:02:23;;;;;;;8.53;2.60;;;13.70;1.00;;;;;;5115692;28;20207;-88
2022/11/03 11:04:57;;;;;;;5.87;1.93;;;13.80;1.00;;;;;;5115568;28;20229;-88
2022/11/03 11:07:28;;;;;;;5.23;1.93;;;14.10;1.00;;;;;;5115718;28;20205;-89
2022/11/03 11:09:55;;;;;;;8.00;2.60;;;14.00;1.00;;;;;;5115497;28;20204;-89
2022/11/03 11:12:23;;;;;;;7.37;2.60;;;14.00;1.00;;;;;;5115426;28;20215;-88
2022/11/03 11:14:57;;;;;;;7.40;2.57;;;14.00;1.00;;;;;;5113189;28;20304;-88
2022/11/03 11:17:41;;;;;;;10.77;2.80;;;14.00;1.00;;;;;;5109007;28;20212;-88
2022/11/03 11:20:34;;;;;;;6.57;2.70;;;14.00;1.00;;;;;;5114457;28;20571;-89
2022/11/03 11:23:51;;;;;;;4.90;2.37;;;14.10;1.00;;;;;;5095146;28;20199;-88
2022/11/03 11:26:34;;;;;;;6.70;3.07;;;14.00;1.00;;;;;;5111530;28;20249;-89
2022/11/03 11:29:36;;;;;;;6.37;2.67;;;14.20;1.00;;;;;;5107718;28;20195;-88
2022/11/03 11:34:56;;;;;;;6.20;2.77;;;14.20;99.90;;;;;;5151270;27;20546;-83
2022/11/03 11:37:35;;;;;;;5.73;2.70;;;14.30;99.90;;;;;;5152711;27;20198;-84
2022/11/03 11:40:09;;;;;;;7.72;2.78;;;14.20;99.90;;;;;;5140423;27;20227;-83
2022/11/03 11:43:14;;;;;;;7.60;3.07;;;14.20;1.00;;;;;;5131094;28;20210;-84
2022/11/03 11:46:18;;;;;;;7.27;2.80;;;14.10;1.00;;;;;;5131541;28;20235;-83
2022/11/03 11:48:45;;;;;;;7.60;2.63;;;14.30;1.00;;;;;;5130677;28;20210;-83
2022/11/03 11:51:13;;;;;;;6.67;2.40;;;14.20;1.00;;;;;;5129412;27;20235;-84
2022/11/03 11:53:41;;;;;;;7.80;2.97;;;14.30;1.00;;;;;;5130666;28;20228;-84
2022/11/03 11:56:11;;;;;;;8.17;2.63;;;14.20;1.00;;;;;;5130546;28;20211;-84
2022/11/03 11:58:42;;;;;;;7.37;3.00;;;14.00;1.00;;;;;;5131150;28;20204;-84
2022/11/03 12:01:22;;;;;;;8.57;2.80;;;14.10;1.00;;;;;;5129804;27;20231;-85
2022/11/03 12:03:50;;;;;;;8.70;2.97;;;14.10;1.00;;;;;;5129664;28;20291;-84
2022/11/03 12:06:33;;;;;;;8.53;2.70;;;14.20;1.00;;;;;;5130122;27;20230;-84
2022/11/03 12:09:04;;;;;;;9.63;2.80;;;14.20;1.00;;;;;;5130674;27;20299;-84
2022/11/03 12:11:41;;;;;;;10.57;3.13;;;14.30;1.00;;;;;;5132796;28;20185;-83
2022/11/03 12:14:22;;;;;;;11.27;3.47;;;14.20;1.00;;;;;;5134423;28;20224;-84
2022/11/03 12:16:49;;;;;;;8.43;3.00;;;14.30;1.00;;;;;;5137050;28;20652;-83
2022/11/03 12:19:35;;;;;;;10.87;3.13;;;14.20;1.00;;;;;;5135585;28;20228;-82
2022/11/03 12:22:05;;;;;;;7.73;3.00;;;14.20;1.00;;;;;;5115597;28;20215;-85
2022/11/03 12:24:38;;;;;;;7.57;3.00;;;14.10;1.00;;;;;;5116232;28;20201;-84
2022/11/03 12:27:18;;;;;;;5.53;2.92;;;14.10;1.00;;;;;;5122700;28;20212;-85
2022/11/03 12:29:44;;;;;;;4.37;2.67;;;14.00;1.00;;;;;;5135071;28;20232;-84
2022/11/03 12:32:11;;;;;;;6.17;2.40;;;14.10;1.00;;;;;;5135056;28;20197;-82
2022/11/03 12:34:38;;;;;;;4.53;2.50;;;14.10;1.00;;;;;;5114521;28;20602;-83
2022/11/03 12:37:07;;;;;;;5.10;2.33;;;14.00;1.00;;;;;;5116937;28;20205;-83
2022/11/03 12:39:34;;;;;;;7.40;2.53;;;14.10;1.00;;;;;;5115514;28;20280;-83
2022/11/03 12:42:00;;;;;;;5.70;2.80;;;14.10;1.00;;;;;;5115402;28;20295;-83
2022/11/03 12:44:28;;;;;;;7.17;2.60;;;14.00;1.00;;;;;;5113030;28;20208;-85
2022/11/03 12:46:54;;;;;;;12.57;3.17;;;14.00;1.00;;;;;;5121609;28;20208;-85
2022/11/03 12:49:21;;;;;;;4.53;2.27;;;14.10;1.00;;;;;;5121052;28;20425;-84
2022/11/03 12:51:48;;;;;;;13.97;3.23;;;14.00;1.00;;;;;;5120731;28;20232;-85
2022/11/03 12:54:16;;;;;;;19.37;11.17;;;14.00;1.00;;;;;;5120749;28;20661;-84
2022/11/03 12:56:43;;;;;;;7.90;2.70;;;14.10;1.00;;;;;;5120262;28;20215;-84
2022/11/03 12:59:10;;;;;;;5.63;2.33;;;14.10;1.00;;;;;;5121460;28;20205;-85
2022/11/03 13:01:37;;;;;;;4.77;2.40;;;14.00;1.00;;;;;;5131772;27;20192;-84
2022/11/03 13:04:05;;;;;;;5.80;2.38;;;14.00;1.00;;;;;;5125727;27;20192;-84
2022/11/03 13:06:31;;;;;;;7.60;2.73;;;14.10;1.00;;;;;;5128123;27;20252;-84
2022/11/03 13:08:58;;;;;;;6.73;2.43;;;14.10;1.00;;;;;;5130944;27;20206;-84
2022/11/03 13:14:10;;;;;;;6.97;2.70;;;14.10;1.00;;;;;;5120528;28;20219;-83
2022/11/03 13:16:37;;;;;;;7.43;2.27;;;14.10;1.00;;;;;;5121273;28;20274;-84
2022/11/03 13:19:04;;;;;;;7.17;2.47;;;14.10;99.90;;;;;;5121039;28;20287;-84
2022/11/03 13:21:31;;;;;;;7.50;2.63;;;14.10;99.90;;;;;;5120833;28;20207;-84
2022/11/03 13:23:58;;;;;;;4.17;2.47;;;14.10;99.90;;;;;;5120207;28;20203;-85
2022/11/03 13:26:27;;;;;;;7.60;2.47;;;14.10;99.90;;;;;;5118273;28;20291;-83
2022/11/03 13:28:53;;;;;;;6.00;2.55;;;14.10;99.90;;;;;;5121010;28;20679;-82
2022/11/03 13:31:20;;;;;;;4.97;2.17;;;14.10;99.90;;;;;;5117824;27;20217;-84
2022/11/03 13:33:47;;;;;;;4.87;2.40;;;14.10;99.90;;;;;;5117818;27;20213;-82
2022/11/03 13:36:14;;;;;;;4.43;2.20;;;14.10;99.90;;;;;;5116339;28;20260;-80
2022/11/03 13:38:41;;;;;;;5.20;2.30;;;14.10;99.90;;;;;;5120121;27;20207;-84